createdAt,value
2023-05-06T00:01:16.811Z,74.07
2023-05-06T00:03:45.260Z,74.00
2023-05-06T00:06:11.968Z,74.44
2023-05-06T00:08:39.832Z,74.19
2023-05-06T00:11:06.880Z,74.70
2023-05-06T00:13:33.522Z,74.46
2023-05-06T00:16:00.168Z,74.29
2023-05-06T00:18:26.758Z,74.60
2023-05-06T00:20:54.955Z,74.49
2023-05-06T00:23:21.497Z,74.41
2023-05-06T00:25:48.041Z,74.84
2023-05-06T00:28:14.681Z,74.44
2023-05-06T00:30:41.214Z,74.75
2023-05-06T00:33:07.936Z,74.86
2023-05-06T00:35:34.694Z,74.68
2023-05-06T00:38:09.416Z,74.43
2023-05-06T00:40:36.136Z,75.01
2023-05-06T00:43:02.646Z,75.33
2023-05-06T00:45:29.629Z,75.24
2023-05-06T00:47:57.315Z,74.73
2023-05-06T00:50:24.604Z,75.04
2023-05-06T00:52:51.942Z,75.30
2023-05-06T00:55:20.143Z,75.16
2023-05-06T00:57:47.114Z,75.18
2023-05-06T01:00:14.347Z,75.36
2023-05-06T01:02:46.937Z,75.54
2023-05-06T01:05:17.515Z,75.41
2023-05-06T01:07:50.532Z,74.96
2023-05-06T01:10:24.893Z,75.01
2023-05-06T01:12:58.097Z,75.10
2023-05-06T01:15:32.996Z,75.26
2023-05-06T01:18:03.544Z,75.08
2023-05-06T01:20:30.934Z,74.89
2023-05-06T01:22:57.508Z,74.80
2023-05-06T01:25:25.404Z,75.07
2023-05-06T01:27:52.465Z,74.85
2023-05-06T01:30:20.291Z,74.71
2023-05-06T01:32:57.751Z,74.64
2023-05-06T01:35:32.868Z,74.63
2023-05-06T01:38:09.786Z,74.78
2023-05-06T01:40:40.770Z,74.96
2023-05-06T01:43:08.467Z,74.95
2023-05-06T01:45:37.653Z,75.16
2023-05-06T01:48:05.500Z,74.92
2023-05-06T01:50:33.466Z,75.12
2023-05-06T01:53:01.716Z,75.03
2023-05-06T01:55:28.903Z,75.14
2023-05-06T01:57:56.834Z,75.36
2023-05-06T02:00:23.646Z,75.46
2023-05-06T02:02:50.488Z,75.15
2023-05-06T02:05:17.358Z,75.54
2023-05-06T02:07:43.896Z,76.15
2023-05-06T02:10:10.957Z,75.71
2023-05-06T02:12:37.621Z,75.76
2023-05-06T02:15:06.847Z,75.54
2023-05-06T02:17:34.821Z,75.12
2023-05-06T02:20:01.534Z,75.60
2023-05-06T02:22:28.070Z,75.39
2023-05-06T02:24:54.647Z,75.63
2023-05-06T02:27:21.326Z,75.57
2023-05-06T02:29:47.924Z,75.43
2023-05-06T02:32:16.190Z,75.41
2023-05-06T02:34:42.839Z,75.70
2023-05-06T02:37:09.625Z,75.76
2023-05-06T02:39:36.441Z,75.95
2023-05-06T02:42:03.164Z,75.68
2023-05-06T02:44:29.742Z,75.65
2023-05-06T02:46:56.650Z,75.79
2023-05-06T02:49:24.552Z,76.14
2023-05-06T02:51:51.219Z,75.58
2023-05-06T02:54:17.776Z,75.60
2023-05-06T02:56:44.448Z,75.60
2023-05-06T02:59:11.094Z,75.66
2023-05-06T03:01:37.720Z,75.83
2023-05-06T03:04:04.628Z,75.79
2023-05-06T03:06:33.725Z,76.00
2023-05-06T03:09:00.284Z,75.81
2023-05-06T03:11:26.815Z,76.14
2023-05-06T03:13:53.343Z,75.81
2023-05-06T03:16:19.822Z,75.83
2023-05-06T03:18:46.326Z,75.79
2023-05-06T03:21:13.401Z,75.50
2023-05-06T03:23:41.808Z,76.00
2023-05-06T03:26:08.384Z,76.08
2023-05-06T03:28:38.315Z,76.03
2023-05-06T03:31:05.036Z,76.09
2023-05-06T03:33:31.803Z,76.29
2023-05-06T03:35:58.504Z,77.29
2023-05-06T03:38:25.044Z,76.98
2023-05-06T03:40:53.426Z,76.21
2023-05-06T03:43:20.244Z,76.27
2023-05-06T03:45:46.882Z,76.33
2023-05-06T03:48:13.957Z,76.24
2023-05-06T03:50:40.737Z,76.41
2023-05-06T03:53:07.605Z,76.15
2023-05-06T03:55:34.223Z,76.79
2023-05-06T03:58:02.489Z,76.85
2023-05-06T04:00:29.193Z,76.46
2023-05-06T04:02:55.825Z,76.78
2023-05-06T04:05:23.034Z,76.07
2023-05-06T04:07:49.570Z,75.72
2023-05-06T04:10:16.483Z,75.21
2023-05-06T04:12:43.120Z,75.15
2023-05-06T04:15:12.064Z,75.53
2023-05-06T04:17:38.754Z,74.46
2023-05-06T04:20:06.398Z,74.34
2023-05-06T04:22:33.193Z,73.67
2023-05-06T04:25:00.237Z,73.73
2023-05-06T04:27:26.792Z,73.34
2023-05-06T04:29:53.425Z,72.05
2023-05-06T04:32:21.346Z,68.55
2023-05-06T04:34:48.155Z,66.26
2023-05-06T04:37:14.690Z,64.13
2023-05-06T04:39:41.241Z,61.65
2023-05-06T04:42:07.841Z,58.62
2023-05-06T04:44:34.686Z,55.95
2023-05-06T04:47:01.247Z,52.86
2023-05-06T04:49:29.154Z,51.22
2023-05-06T04:51:55.629Z,49.27
2023-05-06T04:54:22.186Z,46.14
2023-05-06T04:56:49.012Z,43.34
2023-05-06T04:59:15.547Z,41.92
2023-05-06T05:01:42.228Z,41.97
2023-05-06T05:04:08.971Z,40.80
2023-05-06T05:06:36.914Z,39.65
2023-05-06T05:09:03.549Z,39.37
2023-05-06T05:11:30.118Z,39.06
2023-05-06T05:13:58.397Z,38.38
2023-05-06T05:16:26.223Z,38.71
2023-05-06T05:18:52.821Z,37.83
2023-05-06T05:21:19.394Z,38.05
2023-05-06T05:23:47.380Z,38.30
2023-05-06T05:26:14.037Z,38.34
2023-05-06T05:28:40.640Z,38.68
2023-05-06T05:31:08.386Z,39.31
2023-05-06T05:33:36.919Z,38.95
2023-05-06T05:36:04.559Z,39.22
2023-05-06T05:38:31.153Z,39.97
2023-05-06T05:41:07.362Z,40.61
2023-05-06T05:43:33.914Z,40.77
2023-05-06T05:46:00.438Z,39.96
2023-05-06T05:48:27.257Z,41.42
2023-05-06T05:50:53.834Z,42.37
2023-05-06T05:53:20.423Z,41.77
2023-05-06T05:55:46.978Z,41.80
2023-05-06T05:58:14.837Z,42.49
2023-05-06T06:00:41.591Z,43.19
2023-05-06T06:03:08.511Z,43.49
2023-05-06T06:05:35.307Z,43.18
2023-05-06T06:08:03.761Z,42.86
2023-05-06T06:10:30.776Z,43.09
2023-05-06T06:12:57.543Z,42.71
2023-05-06T06:15:25.475Z,42.80
2023-05-06T06:17:53.265Z,43.06
2023-05-06T06:20:20.037Z,43.07
2023-05-06T06:22:46.867Z,42.99
2023-05-06T06:25:13.496Z,43.16
2023-05-06T06:27:40.051Z,42.74
2023-05-06T06:30:08.014Z,42.95
2023-05-06T06:32:36.004Z,43.01
2023-05-06T06:35:02.739Z,42.78
2023-05-06T06:37:29.523Z,42.65
2023-05-06T06:39:56.164Z,41.35
2023-05-06T06:42:22.811Z,41.61
2023-05-06T06:44:49.473Z,40.78
2023-05-06T06:47:16.084Z,40.88
2023-05-06T06:49:44.120Z,40.48
2023-05-06T06:52:10.755Z,40.95
2023-05-06T06:54:37.704Z,40.98
2023-05-06T06:57:04.521Z,40.40
2023-05-06T06:59:32.263Z,40.53
2023-05-06T07:01:58.829Z,40.51
2023-05-06T07:04:25.476Z,39.77
2023-05-06T07:06:53.688Z,40.50
2023-05-06T07:09:20.330Z,40.44
2023-05-06T07:11:46.870Z,40.61
2023-05-06T07:14:13.851Z,40.19
2023-05-06T07:16:40.430Z,42.07
2023-05-06T07:19:07.074Z,40.79
2023-05-06T07:21:33.688Z,40.26
2023-05-06T07:24:01.610Z,40.93
2023-05-06T07:26:28.303Z,40.60
2023-05-06T07:28:54.879Z,40.57
2023-05-06T07:31:21.590Z,39.80
2023-05-06T07:33:48.447Z,39.88
2023-05-06T07:36:15.227Z,40.26
2023-05-06T07:38:41.874Z,40.21
2023-05-06T07:41:09.921Z,40.44
2023-05-06T07:43:36.504Z,40.34
2023-05-06T07:46:03.666Z,40.57
2023-05-06T07:48:30.551Z,41.87
2023-05-06T07:50:58.006Z,41.48
2023-05-06T07:53:24.872Z,40.50
2023-05-06T07:55:54.163Z,39.19
2023-05-06T07:58:22.078Z,39.85
2023-05-06T08:01:38.751Z,40.05
2023-05-06T08:04:05.637Z,39.59
2023-05-06T08:06:32.315Z,39.93
2023-05-06T08:08:58.918Z,39.15
2023-05-06T08:11:25.626Z,40.25
2023-05-06T08:13:53.559Z,39.55
2023-05-06T08:16:20.518Z,38.77
2023-05-06T08:18:47.779Z,39.18
2023-05-06T08:21:14.356Z,39.67
2023-05-06T08:23:40.931Z,39.66
2023-05-06T08:26:07.537Z,39.29
2023-05-06T08:28:34.108Z,39.33
2023-05-06T08:31:02.175Z,38.05
2023-05-06T08:33:29.306Z,38.21
2023-05-06T08:35:56.108Z,37.79
2023-05-06T08:38:22.574Z,37.54
2023-05-06T08:40:49.534Z,38.14
2023-05-06T08:43:20.390Z,39.14
2023-05-06T08:45:47.515Z,38.16
2023-05-06T08:48:15.527Z,38.42
2023-05-06T08:50:43.278Z,39.56
2023-05-06T08:53:11.349Z,39.16
2023-05-06T08:55:40.202Z,38.63
2023-05-06T08:58:07.349Z,39.04
2023-05-06T09:00:34.492Z,38.01
2023-05-06T09:03:01.152Z,38.78
2023-05-06T09:05:29.334Z,38.69
2023-05-06T09:07:55.957Z,38.59
2023-05-06T09:10:22.612Z,37.71
2023-05-06T09:12:49.244Z,38.92
2023-05-06T09:15:15.822Z,38.29
2023-05-06T09:17:42.441Z,37.71
2023-05-06T09:20:12.322Z,38.07
2023-05-06T09:22:41.226Z,37.91
2023-05-06T09:25:08.644Z,38.19
2023-05-06T09:27:35.776Z,36.58
2023-05-06T09:30:04.103Z,36.35
2023-05-06T09:32:31.384Z,37.81
2023-05-06T09:34:58.259Z,36.99
2023-05-06T09:37:25.565Z,37.08
2023-05-06T09:39:56.883Z,37.06
2023-05-06T09:42:25.004Z,36.85
2023-05-06T09:44:53.909Z,37.97
2023-05-06T09:47:21.401Z,38.12
2023-05-06T09:49:48.005Z,37.34
2023-05-06T09:52:14.564Z,37.70
2023-05-06T09:54:41.363Z,37.39
2023-05-06T09:57:09.862Z,37.81
2023-05-06T09:59:36.744Z,38.23
2023-05-06T10:02:05.574Z,36.34
2023-05-06T10:04:35.671Z,37.32
2023-05-06T10:07:03.184Z,37.86
2023-05-06T10:09:30.056Z,36.63
2023-05-06T10:11:58.781Z,37.31
2023-05-06T10:14:26.745Z,36.60
2023-05-06T10:16:54.879Z,37.28
2023-05-06T10:19:25.814Z,37.87
2023-05-06T10:21:57.403Z,36.79
2023-05-06T10:24:29.284Z,37.39
2023-05-06T10:26:56.497Z,37.85
2023-05-06T10:29:26.321Z,39.00
2023-05-06T10:31:55.208Z,38.78
2023-05-06T10:34:23.629Z,38.03
2023-05-06T10:36:53.271Z,36.67
2023-05-06T10:39:20.687Z,36.07
2023-05-06T10:41:47.919Z,36.72
2023-05-06T10:44:14.634Z,34.97
2023-05-06T10:47:06.667Z,35.37
2023-05-06T10:49:33.770Z,34.56
2023-05-06T10:52:10.640Z,33.72
2023-05-06T10:54:48.648Z,35.54
2023-05-06T10:57:15.477Z,33.94
2023-05-06T10:59:45.365Z,33.75
2023-05-06T11:02:13.817Z,33.54
2023-05-06T11:04:40.688Z,33.67
2023-05-06T11:07:08.525Z,33.21
2023-05-06T11:09:54.053Z,33.80
2023-05-06T11:12:21.211Z,32.74
2023-05-06T11:14:47.951Z,32.96
2023-05-06T11:17:32.124Z,34.46
2023-05-06T11:20:21.730Z,32.46
2023-05-06T11:22:48.397Z,31.77
2023-05-06T11:25:31.005Z,32.25
2023-05-06T11:27:57.713Z,32.01
2023-05-06T11:30:24.611Z,33.39
2023-05-06T11:32:55.554Z,32.87
2023-05-06T11:35:22.574Z,32.02
2023-05-06T11:37:51.623Z,30.77
2023-05-06T11:40:18.196Z,29.76
2023-05-06T11:42:44.780Z,28.91
2023-05-06T11:45:11.468Z,29.73
2023-05-06T11:47:43.251Z,29.94
2023-05-06T11:50:11.606Z,30.62
2023-05-06T11:52:38.411Z,30.18
2023-05-06T11:55:08.239Z,28.86
2023-05-06T11:57:34.975Z,29.48
2023-05-06T12:00:01.657Z,29.79
2023-05-06T12:02:28.506Z,29.08
2023-05-06T12:04:55.329Z,27.88
2023-05-06T12:07:25.414Z,28.34
2023-05-06T12:09:52.335Z,28.53
2023-05-06T12:12:21.305Z,28.14
2023-05-06T12:14:50.272Z,28.10
2023-05-06T12:17:17.029Z,29.27
2023-05-06T12:19:43.595Z,30.14
2023-05-06T12:22:17.988Z,28.54
2023-05-06T12:24:46.373Z,28.03
2023-05-06T12:27:12.980Z,27.79
2023-05-06T12:29:39.716Z,27.85
2023-05-06T12:32:10.193Z,27.92
2023-05-06T12:34:37.675Z,28.05
2023-05-06T12:37:05.295Z,29.33
2023-05-06T12:39:34.576Z,27.63
2023-05-06T12:42:02.574Z,28.04
2023-05-06T12:44:30.640Z,27.98
2023-05-06T12:46:57.198Z,28.20
2023-05-06T12:49:23.918Z,26.64
2023-05-06T12:52:05.874Z,28.27
2023-05-06T12:54:32.429Z,27.58
2023-05-06T12:56:59.393Z,26.57
2023-05-06T12:59:27.455Z,26.80
2023-05-06T13:01:54.167Z,27.14
2023-05-06T13:04:21.511Z,26.38
2023-05-06T13:06:49.269Z,26.87
2023-05-06T13:09:15.939Z,27.84
2023-05-06T13:11:42.750Z,28.12
2023-05-06T13:14:09.404Z,28.13
2023-05-06T13:16:37.938Z,27.88
2023-05-06T13:19:04.883Z,27.38
2023-05-06T13:21:31.449Z,27.43
2023-05-06T13:23:58.051Z,27.92
2023-05-06T13:26:24.610Z,27.67
2023-05-06T13:28:51.204Z,26.87
2023-05-06T13:31:17.897Z,26.47
2023-05-06T13:33:46.033Z,26.68
2023-05-06T13:36:12.614Z,27.47
2023-05-06T13:38:39.184Z,28.70
2023-05-06T13:41:07.975Z,28.37
2023-05-06T13:43:34.635Z,27.45
2023-05-06T13:46:01.301Z,27.62
2023-05-06T13:48:28.096Z,28.15
2023-05-06T13:50:56.531Z,28.19
2023-05-06T13:53:23.131Z,28.55
2023-05-06T13:55:49.819Z,27.17
2023-05-06T13:58:16.853Z,25.84
2023-05-06T14:00:43.845Z,26.75
2023-05-06T14:03:13.550Z,26.78
2023-05-06T14:05:40.275Z,26.51
2023-05-06T14:08:08.297Z,26.61
2023-05-06T14:10:35.021Z,27.29
2023-05-06T14:13:06.248Z,27.68
2023-05-06T14:15:33.578Z,28.19
2023-05-06T14:18:00.353Z,28.11
2023-05-06T14:20:27.113Z,28.70
2023-05-06T14:22:53.706Z,28.41
2023-05-06T14:25:21.715Z,28.51
2023-05-06T14:27:48.335Z,28.81
2023-05-06T14:30:15.336Z,29.28
2023-05-06T14:32:42.426Z,30.02
2023-05-06T14:35:10.465Z,30.17
2023-05-06T14:37:37.112Z,30.05
2023-05-06T14:40:04.965Z,31.09
2023-05-06T14:42:32.879Z,31.29
2023-05-06T14:44:59.464Z,32.08
2023-05-06T14:47:26.139Z,33.25
2023-05-06T14:49:52.689Z,33.64
2023-05-06T14:52:19.422Z,35.85
2023-05-06T14:54:46.031Z,38.54
2023-05-06T14:57:12.560Z,38.34
2023-05-06T14:59:40.681Z,37.81
2023-05-06T15:02:08.722Z,37.93
2023-05-06T15:04:35.510Z,37.22
2023-05-06T15:07:02.261Z,38.45
2023-05-06T15:09:29.003Z,38.86
2023-05-06T15:11:55.592Z,43.00
2023-05-06T15:14:22.157Z,46.69
2023-05-06T15:16:50.302Z,47.78
2023-05-06T15:19:16.868Z,49.72
2023-05-06T15:21:43.457Z,50.24
2023-05-06T15:24:11.991Z,50.39
2023-05-06T15:26:38.632Z,50.57
2023-05-06T15:29:05.389Z,52.62
2023-05-06T15:31:32.215Z,52.62
2023-05-06T15:34:00.798Z,53.79
2023-05-06T15:36:27.574Z,53.37
2023-05-06T15:38:59.898Z,54.67
2023-05-06T15:41:28.436Z,55.75
2023-05-06T15:43:56.719Z,55.10
2023-05-06T15:46:23.720Z,56.25
2023-05-06T15:49:01.700Z,57.60
2023-05-06T15:51:38.631Z,56.81
2023-05-06T15:54:06.561Z,56.38
2023-05-06T15:56:39.326Z,55.96
2023-05-06T15:59:08.380Z,57.10
2023-05-06T16:04:10.938Z,55.91
2023-05-06T16:06:39.082Z,56.65
2023-05-06T16:09:05.721Z,57.15
2023-05-06T16:11:32.402Z,57.38
2023-05-06T16:13:59.001Z,56.77
2023-05-06T16:16:25.740Z,57.55
2023-05-06T16:18:52.405Z,57.31
2023-05-06T16:21:19.068Z,57.39
2023-05-06T16:23:47.069Z,58.20
2023-05-06T16:26:13.678Z,57.72
2023-05-06T16:28:40.640Z,57.90
2023-05-06T16:31:07.500Z,58.54
2023-05-06T16:33:34.146Z,58.18
2023-05-06T16:36:00.673Z,58.27
2023-05-06T16:38:27.341Z,58.63
2023-05-06T16:40:55.271Z,57.99
2023-05-06T16:43:21.782Z,57.47
2023-05-06T16:45:48.614Z,57.00
2023-05-06T16:48:15.774Z,56.67
2023-05-06T16:50:42.641Z,56.57
2023-05-06T16:53:09.499Z,56.49
2023-05-06T16:55:36.683Z,56.22
2023-05-06T16:58:04.601Z,56.44
2023-05-06T17:00:31.182Z,57.21
2023-05-06T17:02:58.057Z,58.03
2023-05-06T17:05:24.744Z,57.32
2023-05-06T17:07:51.377Z,56.10
2023-05-06T17:10:18.069Z,56.35
2023-05-06T17:12:44.731Z,56.61
2023-05-06T17:15:13.043Z,56.76
2023-05-06T17:17:39.741Z,56.59
2023-05-06T17:20:07.934Z,56.48
2023-05-06T17:22:34.598Z,56.82
2023-05-06T17:25:01.343Z,56.82
2023-05-06T17:27:27.987Z,57.80
2023-05-06T17:29:54.598Z,57.42
2023-05-06T17:32:22.610Z,58.46
2023-05-06T17:34:49.281Z,58.99
2023-05-06T17:37:16.040Z,58.96
2023-05-06T17:39:42.616Z,58.60
2023-05-06T17:42:09.468Z,57.99
2023-05-06T17:44:36.237Z,57.91
2023-05-06T17:47:02.827Z,57.79
2023-05-06T17:49:31.026Z,57.56
2023-05-06T17:51:59.287Z,57.89
2023-05-06T17:54:26.812Z,58.69
2023-05-06T17:56:53.413Z,58.65
2023-05-06T17:59:20.243Z,58.48
2023-05-06T18:01:47.703Z,58.60
2023-05-06T18:04:14.497Z,58.17
2023-05-06T18:06:43.063Z,58.29
2023-05-06T18:09:09.628Z,58.22
2023-05-06T18:11:36.918Z,58.53
2023-05-06T18:14:03.898Z,58.45
2023-05-06T18:16:30.637Z,58.39
2023-05-06T18:18:57.270Z,57.86
2023-05-06T18:21:23.842Z,57.84
2023-05-06T18:23:58.616Z,58.33
2023-05-06T18:29:01.858Z,59.04
2023-05-06T18:31:28.473Z,58.85
2023-05-06T18:33:55.199Z,59.37
2023-05-06T18:36:22.252Z,59.73
2023-05-06T18:38:48.824Z,59.75
2023-05-06T18:41:16.822Z,59.44
2023-05-06T18:43:43.455Z,59.38
2023-05-06T18:46:10.081Z,59.66
2023-05-06T18:48:36.749Z,59.55
2023-05-06T18:51:10.871Z,59.49
2023-05-06T18:53:37.488Z,59.27
2023-05-06T18:56:05.194Z,59.36
2023-05-06T18:58:34.461Z,59.62
2023-05-06T19:01:01.326Z,59.77
2023-05-06T19:03:27.900Z,60.52
2023-05-06T19:05:54.484Z,61.08
2023-05-06T19:08:21.368Z,61.37
2023-05-06T19:10:47.932Z,61.24
2023-05-06T19:13:14.563Z,61.40
2023-05-06T19:15:42.951Z,61.32
2023-05-06T19:18:10.894Z,61.21
2023-05-06T19:20:38.332Z,61.89
2023-05-06T19:23:05.040Z,62.20
2023-05-06T19:25:31.990Z,62.18
2023-05-06T19:27:58.767Z,62.58
2023-05-06T19:30:25.877Z,63.62
2023-05-06T19:32:54.862Z,64.50
2023-05-06T19:35:22.321Z,64.67
2023-05-06T19:37:51.387Z,64.22
2023-05-06T19:40:18.211Z,64.15
2023-05-06T19:42:45.024Z,64.37
2023-05-06T19:45:16.586Z,63.88
2023-05-06T19:47:44.905Z,63.77
2023-05-06T19:50:14.214Z,63.73
2023-05-06T19:52:42.672Z,63.05
2023-05-06T19:55:10.095Z,62.35
2023-05-06T19:57:36.838Z,61.89
2023-05-06T20:03:05.769Z,61.08
2023-05-06T20:05:33.833Z,60.97
2023-05-06T20:08:03.244Z,61.12
2023-05-06T20:10:30.094Z,61.32
2023-05-06T20:12:57.785Z,61.77
2023-05-06T20:15:24.808Z,62.21
2023-05-06T20:17:51.434Z,62.20
2023-05-06T20:20:18.052Z,63.58
2023-05-06T20:22:46.211Z,62.86
2023-05-06T20:25:14.807Z,63.80
2023-05-06T20:27:41.614Z,63.87
2023-05-06T20:30:09.133Z,64.21
2023-05-06T20:32:36.219Z,63.70
2023-05-06T20:35:03.017Z,63.57
2023-05-06T20:37:29.617Z,63.30
2023-05-06T20:39:58.000Z,63.66
2023-05-06T20:42:24.575Z,64.10
2023-05-06T20:44:51.521Z,64.29
2023-05-06T20:47:18.462Z,64.38
2023-05-06T20:49:45.075Z,64.81
2023-05-06T20:52:11.697Z,64.82
2023-05-06T20:54:38.202Z,64.92
2023-05-06T20:57:06.176Z,63.95
2023-05-06T20:59:32.843Z,64.53
2023-05-06T21:01:59.537Z,64.15
2023-05-06T21:04:26.180Z,63.75
2023-05-06T21:06:52.765Z,63.59
2023-05-06T21:09:19.449Z,63.78
2023-05-06T21:11:46.088Z,64.20
2023-05-06T21:14:14.069Z,63.74
2023-05-06T21:16:41.032Z,64.25
2023-05-06T21:19:08.011Z,63.84
2023-05-06T21:21:34.443Z,63.59
2023-05-06T21:24:01.145Z,64.87
2023-05-06T21:26:27.966Z,64.10
2023-05-06T21:28:54.502Z,64.28
2023-05-06T21:31:23.667Z,64.23
2023-05-06T21:33:53.628Z,64.29
2023-05-06T21:36:20.407Z,65.14
2023-05-06T21:38:48.059Z,64.07
2023-05-06T21:41:14.816Z,64.22
2023-05-06T21:43:42.244Z,64.54
2023-05-06T21:46:08.859Z,64.25
2023-05-06T21:48:36.822Z,63.98
2023-05-06T21:51:03.885Z,63.87
2023-05-06T21:53:30.438Z,64.53
2023-05-06T21:55:57.108Z,63.77
2023-05-06T21:58:23.773Z,63.80
2023-05-06T22:00:50.335Z,63.37
2023-05-06T22:03:17.322Z,64.15
2023-05-06T22:05:45.372Z,63.35
2023-05-06T22:08:11.948Z,63.28
2023-05-06T22:10:38.564Z,63.26
2023-05-06T22:13:05.233Z,63.45
2023-05-06T22:15:31.842Z,63.39
2023-05-06T22:17:58.491Z,63.75
2023-05-06T22:20:25.055Z,63.99
2023-05-06T22:22:53.401Z,63.78
2023-05-06T22:25:20.099Z,63.64
2023-05-06T22:27:46.715Z,63.69
2023-05-06T22:30:14.208Z,63.54
2023-05-06T22:32:40.846Z,63.76
2023-05-06T22:35:08.761Z,63.94
2023-05-06T22:37:35.521Z,63.49
2023-05-06T22:40:04.094Z,63.58
2023-05-06T22:42:30.564Z,63.76
2023-05-06T22:44:57.872Z,63.61
2023-05-06T22:47:24.494Z,63.45
2023-05-06T22:49:51.184Z,63.22
2023-05-06T22:52:17.859Z,63.48
2023-05-06T22:54:44.509Z,63.26
2023-05-06T22:57:12.784Z,63.70
2023-05-06T22:59:39.473Z,63.32
2023-05-06T23:02:06.043Z,63.25
2023-05-06T23:04:32.613Z,63.36
2023-05-06T23:06:59.560Z,63.51
2023-05-06T23:09:26.116Z,63.69
2023-05-06T23:11:52.802Z,63.41
2023-05-06T23:14:20.663Z,63.77
2023-05-06T23:16:47.339Z,63.93
2023-05-06T23:19:13.993Z,63.95
2023-05-06T23:21:40.756Z,63.72
2023-05-06T23:24:08.993Z,63.72
2023-05-06T23:26:35.653Z,63.56
2023-05-06T23:29:02.197Z,63.91
2023-05-06T23:31:30.155Z,63.75
2023-05-06T23:33:56.759Z,63.51
2023-05-06T23:36:23.367Z,63.57
2023-05-06T23:38:49.893Z,63.43
2023-05-06T23:41:16.570Z,63.71
2023-05-06T23:43:43.144Z,63.93
2023-05-06T23:46:10.310Z,63.81
2023-05-06T23:48:38.285Z,63.66
2023-05-06T23:51:05.034Z,63.67
2023-05-06T23:53:31.632Z,63.63
2023-05-06T23:55:58.428Z,63.21
2023-05-06T23:58:25.109Z,64.00
